Latest Coastal Weather Observations for Cape Jaffa

IDS60701

Issued at 5:21 am CDT Wednesday 28 January 2015 (issued every 10 minutes, with the page automatically refreshed every 10 minutes)

About coastal observations | Map of coastal stations | Coastal observations for SA | Marine services | Other Formats
Station Details ID: 026095 Name: THE LIMESTONE Lat: -36.97 Lon: 139.72 Height: 17.0 m
Data from the previous 72 hours. | See also: Recent months at Cape Jaffa
Date/Time
CDT
Temp

°C
Wind Pressure Rain
since 9am
mm
Weather Cloud Vis
km
Sea
Height
m
Swell
Dir
 
Speed
knots
Gust
knots
hPa Trend Height
m
Period
s
Dir
28/05:00am 12.7 SE 6 8 1018.0 - 0.0 - - - - - - -
28/04:30am 12.0 SSE 7 8 1018.1 - 0.0 - - - - - - -
28/04:00am 12.3 SSE 7 9 1018.2 - 0.0 - - - - - - -
28/03:30am 13.1 SSE 8 11 1018.2 - 0.0 - - - - - - -
28/03:00am 12.3 SSE 8 10 1018.6 - 0.0 - - - - - - -
28/02:30am 13.0 SSE 8 11 1018.6 - 0.0 - - - - - - -
28/02:00am 12.7 SSE 8 10 1019.0 - 0.0 - - - - - - -
28/01:30am 12.7 SSE 8 11 1019.4 - 0.0 - - - - - - -
28/01:00am 12.0 SSE 6 8 1019.6 - 0.0 - - - - - - -
28/12:30am 12.4 SSE 7 9 1019.7 - 0.0 - - - - - - -
28/12:00am 12.8 SSE 9 11 1019.6 - 0.0 - - - - - - -
 
Date/Time
CDT
Temp

°C
Wind Pressure Rain
since 9am
mm
Weather Cloud Vis
km
Sea
Height
m
Swell
Dir
 
Speed
knots
Gust
knots
hPa Trend Height
m
Period
s
Dir
27/11:30pm 12.8 SSE 9 13 1019.6 - 0.0 - - - - - - -
27/11:00pm 13.1 SSE 9 12 1019.6 - 0.0 - - - - - - -
27/10:30pm 13.4 SSE 9 12 1019.4 - 0.0 - - - - - - -
27/10:00pm 14.1 SSE 10 14 1019.3 - 0.0 - - - - - - -
27/09:30pm 14.6 SSE 12 17 1019.1 - 0.0 - - - - - - -
27/09:00pm 15.2 SSE 15 20 1018.7 - 0.0 - - - - - - -
27/08:30pm 15.5 S 18 24 1018.3 - 0.0 - - - - - - -
27/08:00pm 16.2 S 17 22 1018.3 - 0.0 - - - - - - -
27/07:30pm 16.6 S 20 28 1018.0 - 0.0 - - - - - - -
27/07:00pm 17.0 SSE 20 27 1017.7 - 0.0 - - - - - - -
27/06:30pm 18.2 S 20 25 1017.3 - 0.0 - - - - - - -
27/06:00pm 18.4 S 22 28 1017.1 - 0.0 - - - - - - -
27/05:30pm 18.9 S 24 29 1017.3 - 0.0 - - - - - - -
27/05:00pm 18.4 SSW 24 30 1017.2 - 0.0 - - - - - - -
27/04:30pm 18.9 S 25 29 1017.3 - 0.0 - - - - - - -
27/04:00pm 19.5 S 25 31 1017.3 - 0.0 - - - - - - -
27/03:30pm 19.5 S 24 28 1017.5 - 0.0 - - - - - - -
27/03:00pm 18.6 SSW 24 29 1017.5 - 0.0 - - - - - - -
27/02:30pm 19.1 SSW 24 28 1017.6 - 0.0 - - - - - - -
27/02:00pm 19.1 S 21 26 1017.9 - 0.0 - - - - - - -
27/01:30pm 18.9 SSW 21 25 1018.0 - 0.0 - - - - - - -
27/01:00pm 19.0 SSW 19 23 1018.3 - 0.0 - - - - - - -
27/12:30pm 18.2 S 18 22 1018.7 - 0.0 - - - - - - -
27/12:00pm 18.3 S 17 20 1018.8 - 0.0 - - - - - - -
27/11:30am 18.6 S 14 21 1019.1 - 0.0 - - - - - - -
27/11:00am 18.3 S 15 21 1019.1 - 0.0 - - - - - - -
27/10:30am 17.4 S 15 22 1019.2 - 0.0 - - - - - - -
27/10:00am 16.8 SSE 12 17 1019.4 - 0.0 - - - - - - -
27/09:30am 16.4 S 12 16 1019.6 - 0.0 - - - - - - -
27/09:00am 16.3 SSE 8 11 1019.5 - 0.0 - - - - - - -
27/08:30am 15.5 SSE 6 9 1019.5 - 0.0 - - - - - - -
27/08:00am 14.3 SE 5 7 1019.2 - 0.0 - - - - - - -
27/07:30am 12.8 ESE 4 5 1018.9 - 0.0 - - - - - - -
27/07:00am 11.0 ESE 5 7 1018.7 - 0.0 - - - - - - -
27/06:30am 10.6 ESE 5 6 1018.4 - 0.0 - - - - - - -
27/06:00am 9.4 SE 5 5 1018.2 - 0.0 - - - - - - -
27/05:30am 9.3 SE 5 6 1017.9 - 0.0 - - - - - - -
27/05:00am 9.5 SE 4 5 1017.8 - 0.0 - - - - - - -
27/04:30am 9.6 SE 5 5 1017.8 - 0.0 - - - - - - -
27/04:00am 9.6 SE 5 5 1017.8 - 0.0 - - - - - - -
27/03:30am 9.6 SE 5 6 1018.0 - 0.0 - - - - - - -
27/03:00am 9.9 SE 4 5 1018.2 - 0.0 - - - - - - -
27/02:30am 10.4 SE 5 6 1018.3 - 0.0 - - - - - - -
27/02:00am 10.0 ESE 4 5 1018.4 - 0.0 - - - - - - -
27/01:30am 10.5 ESE 4 5 1018.6 - 0.0 - - - - - - -
27/01:00am 10.8 SE 5 6 1018.8 - 0.0 - - - - - - -
27/12:30am 11.7 SE 6 7 1018.9 - 0.0 - - - - - - -
27/12:00am 12.1 SSE 7 9 1018.8 - 0.0 - - - - - - -
 
Date/Time
CDT
Temp

°C
Wind Pressure Rain
since 9am
mm
Weather Cloud Vis
km
Sea
Height
m
Swell
Dir
 
Speed
knots
Gust
knots
hPa Trend Height
m
Period
s
Dir
26/11:30pm 12.6 SSE 8 11 1018.9 - 0.0 - - - - - - -
26/11:00pm 12.7 SSE 8 11 1019.0 - 0.0 - - - - - - -
26/10:30pm 13.0 SSE 8 10 1019.1 - 0.0 - - - - - - -
26/10:00pm 13.6 SSE 9 12 1019.1 - 0.0 - - - - - - -
26/09:30pm 14.1 SSE 10 13 1019.0 - 0.0 - - - - - - -
26/09:00pm 14.7 S 14 17 1018.7 - 0.0 - - - - - - -
26/08:30pm 14.9 S 13 17 1018.6 - 0.0 - - - - - - -
26/08:00pm 15.4 S 14 18 1018.5 - 0.0 - - - - - - -
26/07:30pm 16.2 S 16 20 1018.1 - 0.0 - - - - - - -
26/07:00pm 16.9 S 17 19 1017.9 - 0.0 - - - - - - -
26/06:30pm 17.0 S 17 22 1017.6 - 0.0 - - - - - - -
26/06:00pm 17.2 S 17 23 1017.5 - 0.0 - - - - - - -
26/05:30pm 18.0 S 17 20 1017.3 - 0.0 - - - - - - -
26/05:00pm 18.1 SSW 17 22 1017.3 - 0.0 - - - - - - -
26/04:30pm 18.9 SSW 18 23 1017.5 - 0.0 - - - - - - -
26/04:00pm 18.6 SSW 18 23 1017.6 - 0.0 - - - - - - -
26/03:30pm 18.7 SSW 18 23 1017.7 - 0.0 - - - - - - -
26/03:00pm 19.2 SSW 17 23 1017.8 - 0.0 - - - - - - -
26/02:30pm 18.4 SSW 17 21 1017.7 - 0.0 - - - - - - -
26/02:00pm 18.6 SSW 17 21 1017.9 - 0.0 - - - - - - -
26/01:30pm 18.3 SSW 15 21 1018.0 - 0.0 - - - - - - -
26/01:00pm 18.5 SSW 15 20 1018.0 - 0.0 - - - - - - -
26/12:30pm 18.5 SSW 14 17 1018.3 - 0.0 - - - - - - -
26/12:00pm 18.6 SSW 13 18 1018.4 - 0.0 - - - - - - -
26/11:30am 18.1 SSW 13 18 1018.6 - 0.0 - - - - - - -
26/11:00am 17.7 SSW 11 16 1018.7 - 0.0 - - - - - - -
26/10:30am 17.8 SSW 9 14 1018.7 - 0.0 - - - - - - -
26/10:00am 17.2 SSW 8 13 1018.8 - 0.0 - - - - - - -
26/09:30am 16.1 S 6 11 1018.9 - 0.0 - - - - - - -
26/09:00am 16.2 S 7 11 1018.9 - 0.0 - - - - - - -
26/08:30am 15.7 SE 6 9 1018.7 - 0.0 - - - - - - -
26/08:00am 15.2 SE 6 8 1018.2 - 0.0 - - - - - - -
26/07:30am 14.2 SE 5 6 1018.0 - 0.0 - - - - - - -
26/07:00am 12.6 ESE 4 5 1017.6 - 0.0 - - - - - - -
26/06:30am 11.3 SE 3 4 1017.3 - 0.0 - - - - - - -
26/06:00am 11.6 SE 6 7 1016.9 - 0.0 - - - - - - -
26/05:30am 12.2 SSE 5 6 1016.4 - 0.0 - - - - - - -
26/05:00am 12.4 SSE 5 8 1016.0 - 0.0 - - - - - - -
26/04:30am 13.7 SSW 8 12 1015.9 - 0.0 - - - - - - -
26/04:00am 13.4 SE 4 7 1015.7 - 0.0 - - - - - - -
26/03:30am 13.3 SSE 5 6 1015.6 - 0.0 - - - - - - -
26/03:00am 13.1 SE 5 7 1015.4 - 0.0 - - - - - - -
26/02:30am 14.1 SSW 10 15 1015.5 - 0.0 - - - - - - -
26/02:00am 14.3 SSW 8 10 1015.5 - 0.0 - - - - - - -
26/01:30am 14.5 SSW 10 14 1015.5 - 0.0 - - - - - - -
26/01:00am 13.4 S 9 13 1015.5 - 0.0 - - - - - - -
26/12:30am 14.4 SSW 11 13 1015.5 - 0.0 - - - - - - -
26/12:00am 14.1 SSW 13 17 1015.4 - 0.0 - - - - - - -
 
Date/Time
CDT
Temp

°C
Wind Pressure Rain
since 9am
mm
Weather Cloud Vis
km
Sea
Height
m
Swell
Dir
 
Speed
knots
Gust
knots
hPa Trend Height
m
Period
s
Dir
25/11:30pm 14.5 SSW 10 15 1015.4 - 0.0 - - - - - - -
25/11:00pm 14.5 SSW 12 16 1015.4 - 0.0 - - - - - - -
25/10:30pm 13.4 SSW 15 20 1015.4 - 0.0 - - - - - - -
25/10:00pm 13.9 SSW 16 22 1015.1 - 0.0 - - - - - - -
25/09:30pm 14.7 SSW 13 17 1014.9 - 0.0 - - - - - - -
25/09:00pm 15.0 SSW 16 21 1014.7 - 0.0 - - - - - - -
25/08:30pm 15.0 SW 14 19 1014.5 - 0.0 - - - - - - -
25/08:00pm 15.5 SW 14 19 1014.2 - 0.0 - - - - - - -
25/07:30pm 16.2 SW 14 21 1013.9 - 0.0 - - - - - - -
25/07:00pm 16.7 SW 15 20 1013.8 - 0.0 - - - - - - -
25/06:30pm 17.3 SW 17 22 1013.6 - 0.0 - - - - - - -
25/06:00pm 17.3 SW 17 22 1013.4 - 0.0 - - - - - - -
25/05:30pm 18.0 WSW 17 21 1013.5 - 0.0 - - - - - - -
25/05:00pm 18.5 WSW 18 22 1013.3 - 0.0 - - - - - - -
25/04:30pm 18.1 SW 16 21 1013.1 - 0.0 - - - - - - -
25/04:00pm 18.3 SW 18 23 1013.1 - 0.0 - - - - - - -
25/03:30pm 18.2 SW 19 25 1013.0 - 0.0 - - - - - - -
25/03:00pm 19.3 WSW 19 25 1013.1 - 0.0 - - - - - - -
25/02:30pm 19.0 WSW 18 24 1013.1 - 0.0 - - - - - - -
25/02:00pm 18.3 WSW 18 24 1013.2 - 0.0 - - - - - - -
25/01:30pm 17.5 WSW 18 22 1013.3 - 0.0 - - - - - - -
25/01:00pm 18.2 WSW 16 20 1013.3 - 0.0 - - - - - - -
25/12:30pm 16.9 WSW 19 24 1013.1 - 0.0 - - - - - - -
25/12:00pm 18.4 WSW 19 24 1012.9 - 0.0 - - - - - - -
25/11:30am 18.1 WSW 18 22 1012.6 - 0.0 - - - - - - -
25/11:00am 16.8 SW 21 28 1012.3 - 0.0 - - - - - - -
25/10:30am 16.6 W 18 24 1012.1 - 0.0 - - - - - - -
25/10:00am 16.5 WSW 16 20 1012.0 - 0.0 - - - - - - -
25/09:30am 15.7 W 16 21 1011.8 - 0.0 - - - - - - -
25/09:00am 16.5 WSW 16 21 1011.4 - 1.6 - - - - - - -
25/08:30am 15.4 WSW 16 21 1011.1 - 1.6 - - - - - - -
25/08:00am 15.2 WSW 16 20 1010.6 - 1.6 - - - - - - -
25/07:30am 14.8 SW 15 21 1009.8 - 1.6 - - - - - - -
25/07:00am 14.4 WSW 16 19 1009.6 - 1.6 - - - - - - -
25/06:30am 14.2 WSW 15 19 1009.1 - 1.6 - - - - - - -
25/06:00am 14.5 SW 13 22 1008.6 - 1.6 - - - - - - -
25/05:30am 13.9 WSW 14 18 1008.4 - 1.6 - - - - - - -

Other Formats:

Comma delimited format used in spreadsheet applications
http://www.bom.gov.au/fwo/IDS60701/IDS60701.94813.axf

JavaScript Object Notation format (JSON) in row-major order
http://www.bom.gov.au/fwo/IDS60701/IDS60701.94813.json